sensor_id;sensor_type;location;lat;lon;timestamp;P1;durP1;ratioP1;P2;durP2;ratioP2
26806;SDS011;14380;49.910;6.792;2023-03-01T00:00:07;12.35;;;7.70;;
26806;SDS011;14380;49.910;6.792;2023-03-01T00:02:35;16.77;;;8.35;;
26806;SDS011;14380;49.910;6.792;2023-03-01T00:05:02;12.88;;;8.07;;
26806;SDS011;14380;49.910;6.792;2023-03-01T00:07:29;13.18;;;8.25;;
26806;SDS011;14380;49.910;6.792;2023-03-01T00:09:56;13.73;;;8.43;;
26806;SDS011;14380;49.910;6.792;2023-03-01T00:12:23;14.05;;;7.95;;
26806;SDS011;14380;49.910;6.792;2023-03-01T00:14:50;14.75;;;8.35;;
26806;SDS011;14380;49.910;6.792;2023-03-01T00:17:17;12.98;;;8.50;;
26806;SDS011;14380;49.910;6.792;2023-03-01T00:19:44;14.70;;;8.15;;
26806;SDS011;14380;49.910;6.792;2023-03-01T00:22:10;13.68;;;8.48;;
26806;SDS011;14380;49.910;6.792;2023-03-01T00:24:37;15.93;;;9.20;;
26806;SDS011;14380;49.910;6.792;2023-03-01T00:27:04;13.20;;;8.85;;
26806;SDS011;14380;49.910;6.792;2023-03-01T00:29:32;15.82;;;8.75;;
26806;SDS011;14380;49.910;6.792;2023-03-01T00:31:59;13.50;;;8.93;;
26806;SDS011;14380;49.910;6.792;2023-03-01T00:34:25;15.63;;;9.30;;
26806;SDS011;14380;49.910;6.792;2023-03-01T00:36:52;15.63;;;8.63;;
26806;SDS011;14380;49.910;6.792;2023-03-01T00:39:19;14.27;;;9.48;;
26806;SDS011;14380;49.910;6.792;2023-03-01T00:41:46;13.00;;;8.55;;
26806;SDS011;14380;49.910;6.792;2023-03-01T00:44:12;13.52;;;8.85;;
26806;SDS011;14380;49.910;6.792;2023-03-01T00:46:40;15.90;;;9.45;;
26806;SDS011;14380;49.910;6.792;2023-03-01T00:49:07;15.50;;;8.90;;
26806;SDS011;14380;49.910;6.792;2023-03-01T00:51:34;17.20;;;9.40;;
26806;SDS011;14380;49.910;6.792;2023-03-01T00:54:01;14.63;;;9.90;;
26806;SDS011;14380;49.910;6.792;2023-03-01T00:56:29;15.95;;;9.88;;
26806;SDS011;14380;49.910;6.792;2023-03-01T00:58:56;13.60;;;9.60;;
26806;SDS011;14380;49.910;6.792;2023-03-01T01:01:24;16.33;;;10.40;;
26806;SDS011;14380;49.910;6.792;2023-03-01T01:03:55;15.07;;;9.13;;
26806;SDS011;14380;49.910;6.792;2023-03-01T01:06:24;16.75;;;9.60;;
26806;SDS011;14380;49.910;6.792;2023-03-01T01:08:52;15.55;;;8.88;;
26806;SDS011;14380;49.910;6.792;2023-03-01T01:11:21;13.57;;;9.52;;
26806;SDS011;14380;49.910;6.792;2023-03-01T01:13:50;15.02;;;8.90;;
26806;SDS011;14380;49.910;6.792;2023-03-01T01:16:18;13.75;;;9.50;;
26806;SDS011;14380;49.910;6.792;2023-03-01T01:18:47;16.38;;;10.10;;
26806;SDS011;14380;49.910;6.792;2023-03-01T01:21:18;20.55;;;12.38;;
26806;SDS011;14380;49.910;6.792;2023-03-01T01:23:46;15.90;;;10.43;;
26806;SDS011;14380;49.910;6.792;2023-03-01T01:26:15;20.48;;;11.35;;
26806;SDS011;14380;49.910;6.792;2023-03-01T01:28:43;12.77;;;7.68;;
26806;SDS011;14380;49.910;6.792;2023-03-01T01:31:10;15.88;;;8.80;;
26806;SDS011;14380;49.910;6.792;2023-03-01T01:33:37;13.57;;;8.70;;
26806;SDS011;14380;49.910;6.792;2023-03-01T01:36:04;16.25;;;9.55;;
26806;SDS011;14380;49.910;6.792;2023-03-01T01:38:33;21.88;;;12.02;;
26806;SDS011;14380;49.910;6.792;2023-03-01T01:41:00;20.67;;;10.75;;
26806;SDS011;14380;49.910;6.792;2023-03-01T01:43:28;16.60;;;9.65;;
26806;SDS011;14380;49.910;6.792;2023-03-01T01:45:57;15.35;;;9.90;;
26806;SDS011;14380;49.910;6.792;2023-03-01T01:48:28;19.75;;;10.90;;
26806;SDS011;14380;49.910;6.792;2023-03-01T01:51:06;19.42;;;10.23;;
26806;SDS011;14380;49.910;6.792;2023-03-01T01:53:37;18.70;;;10.55;;
26806;SDS011;14380;49.910;6.792;2023-03-01T01:56:05;19.52;;;10.68;;
26806;SDS011;14380;49.910;6.792;2023-03-01T01:58:35;17.02;;;10.63;;
26806;SDS011;14380;49.910;6.792;2023-03-01T02:01:03;16.77;;;9.95;;
26806;SDS011;14380;49.910;6.792;2023-03-01T02:03:31;18.90;;;10.98;;
26806;SDS011;14380;49.910;6.792;2023-03-01T02:06:03;18.95;;;11.35;;
26806;SDS011;14380;49.910;6.792;2023-03-01T02:08:33;21.13;;;12.23;;
26806;SDS011;14380;49.910;6.792;2023-03-01T02:11:04;18.63;;;11.30;;
26806;SDS011;14380;49.910;6.792;2023-03-01T02:13:31;18.05;;;10.70;;
26806;SDS011;14380;49.910;6.792;2023-03-01T02:16:02;17.75;;;11.60;;
26806;SDS011;14380;49.910;6.792;2023-03-01T02:18:29;22.25;;;12.10;;
26806;SDS011;14380;49.910;6.792;2023-03-01T02:21:00;18.25;;;10.65;;
26806;SDS011;14380;49.910;6.792;2023-03-01T02:23:39;19.00;;;10.35;;
26806;SDS011;14380;49.910;6.792;2023-03-01T02:26:09;18.25;;;10.20;;
26806;SDS011;14380;49.910;6.792;2023-03-01T02:28:44;18.65;;;11.43;;
26806;SDS011;14380;49.910;6.792;2023-03-01T02:31:14;20.67;;;12.32;;
26806;SDS011;14380;49.910;6.792;2023-03-01T02:33:59;21.67;;;10.95;;
26806;SDS011;14380;49.910;6.792;2023-03-01T02:36:30;17.90;;;10.57;;
26806;SDS011;14380;49.910;6.792;2023-03-01T02:39:01;17.83;;;10.77;;
26806;SDS011;14380;49.910;6.792;2023-03-01T02:41:31;21.02;;;11.43;;
26806;SDS011;14380;49.910;6.792;2023-03-01T02:44:03;19.52;;;10.75;;
26806;SDS011;14380;49.910;6.792;2023-03-01T02:46:30;19.48;;;12.13;;
26806;SDS011;14380;49.910;6.792;2023-03-01T02:48:58;16.00;;;11.65;;
26806;SDS011;14380;49.910;6.792;2023-03-01T02:51:28;19.85;;;12.68;;
26806;SDS011;14380;49.910;6.792;2023-03-01T02:54:21;23.27;;;13.25;;
26806;SDS011;14380;49.910;6.792;2023-03-01T02:56:54;23.40;;;11.60;;
26806;SDS011;14380;49.910;6.792;2023-03-01T02:59:24;22.55;;;13.38;;
26806;SDS011;14380;49.910;6.792;2023-03-01T03:01:55;21.80;;;13.63;;
26806;SDS011;14380;49.910;6.792;2023-03-01T03:04:21;20.83;;;11.88;;
26806;SDS011;14380;49.910;6.792;2023-03-01T03:06:49;21.30;;;12.98;;
26806;SDS011;14380;49.910;6.792;2023-03-01T03:09:17;20.23;;;12.63;;
26806;SDS011;14380;49.910;6.792;2023-03-01T03:11:44;23.02;;;14.32;;
26806;SDS011;14380;49.910;6.792;2023-03-01T03:14:12;22.05;;;14.13;;
26806;SDS011;14380;49.910;6.792;2023-03-01T03:16:42;24.00;;;13.65;;
26806;SDS011;14380;49.910;6.792;2023-03-01T03:19:11;22.05;;;13.48;;
26806;SDS011;14380;49.910;6.792;2023-03-01T03:21:39;21.83;;;12.57;;
26806;SDS011;14380;49.910;6.792;2023-03-01T03:24:05;24.40;;;14.68;;
26806;SDS011;14380;49.910;6.792;2023-03-01T03:26:32;22.98;;;13.95;;
26806;SDS011;14380;49.910;6.792;2023-03-01T03:28:59;20.80;;;13.40;;
26806;SDS011;14380;49.910;6.792;2023-03-01T03:31:26;22.33;;;13.32;;
26806;SDS011;14380;49.910;6.792;2023-03-01T03:33:54;20.48;;;13.82;;
26806;SDS011;14380;49.910;6.792;2023-03-01T03:36:22;24.10;;;14.93;;
26806;SDS011;14380;49.910;6.792;2023-03-01T03:38:50;20.85;;;13.57;;
26806;SDS011;14380;49.910;6.792;2023-03-01T03:41:17;26.60;;;15.25;;
26806;SDS011;14380;49.910;6.792;2023-03-01T03:43:44;23.02;;;14.88;;
26806;SDS011;14380;49.910;6.792;2023-03-01T03:46:11;23.00;;;14.07;;
26806;SDS011;14380;49.910;6.792;2023-03-01T03:48:38;23.48;;;14.25;;
26806;SDS011;14380;49.910;6.792;2023-03-01T03:51:09;24.92;;;14.35;;
26806;SDS011;14380;49.910;6.792;2023-03-01T03:53:36;23.67;;;13.55;;
26806;SDS011;14380;49.910;6.792;2023-03-01T03:56:03;20.95;;;13.68;;
26806;SDS011;14380;49.910;6.792;2023-03-01T03:58:30;21.55;;;13.75;;
26806;SDS011;14380;49.910;6.792;2023-03-01T04:00:57;22.27;;;13.82;;
26806;SDS011;14380;49.910;6.792;2023-03-01T04:03:24;19.48;;;13.20;;
26806;SDS011;14380;49.910;6.792;2023-03-01T04:05:52;23.65;;;13.48;;
26806;SDS011;14380;49.910;6.792;2023-03-01T04:08:21;25.98;;;15.18;;
26806;SDS011;14380;49.910;6.792;2023-03-01T04:10:49;25.80;;;15.95;;
26806;SDS011;14380;49.910;6.792;2023-03-01T04:13:18;27.38;;;16.17;;
26806;SDS011;14380;49.910;6.792;2023-03-01T04:15:46;25.35;;;15.65;;
26806;SDS011;14380;49.910;6.792;2023-03-01T04:18:14;21.77;;;14.05;;
26806;SDS011;14380;49.910;6.792;2023-03-01T04:20:42;23.48;;;13.85;;
26806;SDS011;14380;49.910;6.792;2023-03-01T04:23:10;25.60;;;15.55;;
26806;SDS011;14380;49.910;6.792;2023-03-01T04:25:42;23.58;;;15.75;;
26806;SDS011;14380;49.910;6.792;2023-03-01T04:28:14;27.52;;;14.95;;
26806;SDS011;14380;49.910;6.792;2023-03-01T04:30:42;27.17;;;16.02;;
26806;SDS011;14380;49.910;6.792;2023-03-01T04:33:09;21.85;;;13.98;;
26806;SDS011;14380;49.910;6.792;2023-03-01T04:35:37;21.63;;;14.38;;
26806;SDS011;14380;49.910;6.792;2023-03-01T04:38:04;24.48;;;14.30;;
26806;SDS011;14380;49.910;6.792;2023-03-01T04:40:31;26.85;;;14.60;;
26806;SDS011;14380;49.910;6.792;2023-03-01T04:43:00;22.15;;;14.27;;
26806;SDS011;14380;49.910;6.792;2023-03-01T04:45:27;23.30;;;14.73;;
26806;SDS011;14380;49.910;6.792;2023-03-01T04:47:54;21.50;;;14.43;;
26806;SDS011;14380;49.910;6.792;2023-03-01T04:50:23;23.10;;;14.73;;
26806;SDS011;14380;49.910;6.792;2023-03-01T04:52:50;24.50;;;14.57;;
26806;SDS011;14380;49.910;6.792;2023-03-01T04:55:18;24.88;;;14.20;;
26806;SDS011;14380;49.910;6.792;2023-03-01T04:57:45;20.33;;;13.75;;
26806;SDS011;14380;49.910;6.792;2023-03-01T05:00:14;23.20;;;14.35;;
26806;SDS011;14380;49.910;6.792;2023-03-01T05:02:47;24.07;;;13.77;;
26806;SDS011;14380;49.910;6.792;2023-03-01T05:05:18;25.92;;;14.73;;
26806;SDS011;14380;49.910;6.792;2023-03-01T05:07:54;28.00;;;16.40;;
26806;SDS011;14380;49.910;6.792;2023-03-01T05:10:23;25.63;;;16.60;;
26806;SDS011;14380;49.910;6.792;2023-03-01T05:12:53;26.85;;;16.52;;
26806;SDS011;14380;49.910;6.792;2023-03-01T05:15:24;31.17;;;17.48;;
26806;SDS011;14380;49.910;6.792;2023-03-01T05:17:52;34.30;;;18.00;;
26806;SDS011;14380;49.910;6.792;2023-03-01T05:20:19;28.27;;;16.13;;
26806;SDS011;14380;49.910;6.792;2023-03-01T05:22:49;28.15;;;16.38;;
26806;SDS011;14380;49.910;6.792;2023-03-01T05:25:16;26.92;;;16.80;;
26806;SDS011;14380;49.910;6.792;2023-03-01T05:27:43;28.33;;;17.85;;
26806;SDS011;14380;49.910;6.792;2023-03-01T05:30:10;27.05;;;16.17;;
26806;SDS011;14380;49.910;6.792;2023-03-01T05:32:42;29.30;;;16.77;;
26806;SDS011;14380;49.910;6.792;2023-03-01T05:35:11;25.02;;;16.02;;
26806;SDS011;14380;49.910;6.792;2023-03-01T05:37:40;26.77;;;16.92;;
26806;SDS011;14380;49.910;6.792;2023-03-01T05:40:08;29.85;;;16.42;;
26806;SDS011;14380;49.910;6.792;2023-03-01T05:42:43;29.65;;;16.77;;
26806;SDS011;14380;49.910;6.792;2023-03-01T05:45:11;25.02;;;16.25;;
26806;SDS011;14380;49.910;6.792;2023-03-01T05:47:39;31.33;;;17.77;;
26806;SDS011;14380;49.910;6.792;2023-03-01T05:50:11;29.85;;;19.52;;
26806;SDS011;14380;49.910;6.792;2023-03-01T05:52:38;27.63;;;18.15;;
26806;SDS011;14380;49.910;6.792;2023-03-01T05:55:05;30.85;;;18.58;;
26806;SDS011;14380;49.910;6.792;2023-03-01T05:57:33;33.78;;;19.70;;
26806;SDS011;14380;49.910;6.792;2023-03-01T06:00:00;29.92;;;18.80;;
26806;SDS011;14380;49.910;6.792;2023-03-01T06:02:26;28.75;;;17.23;;
26806;SDS011;14380;49.910;6.792;2023-03-01T06:04:54;27.95;;;16.08;;
26806;SDS011;14380;49.910;6.792;2023-03-01T06:07:24;32.30;;;18.95;;
26806;SDS011;14380;49.910;6.792;2023-03-01T06:09:51;32.17;;;19.63;;
26806;SDS011;14380;49.910;6.792;2023-03-01T06:12:18;31.92;;;18.48;;
26806;SDS011;14380;49.910;6.792;2023-03-01T06:14:45;28.92;;;16.80;;
26806;SDS011;14380;49.910;6.792;2023-03-01T06:17:12;30.98;;;19.23;;
26806;SDS011;14380;49.910;6.792;2023-03-01T06:19:39;35.42;;;18.80;;
26806;SDS011;14380;49.910;6.792;2023-03-01T06:22:05;31.50;;;18.67;;
26806;SDS011;14380;49.910;6.792;2023-03-01T06:24:34;29.42;;;18.30;;
26806;SDS011;14380;49.910;6.792;2023-03-01T06:27:01;30.60;;;19.10;;
26806;SDS011;14380;49.910;6.792;2023-03-01T06:29:28;32.63;;;18.55;;
26806;SDS011;14380;49.910;6.792;2023-03-01T06:31:55;27.08;;;17.58;;
26806;SDS011;14380;49.910;6.792;2023-03-01T06:34:21;32.67;;;17.65;;
26806;SDS011;14380;49.910;6.792;2023-03-01T06:36:48;35.40;;;17.40;;
26806;SDS011;14380;49.910;6.792;2023-03-01T06:39:15;34.08;;;19.35;;
26806;SDS011;14380;49.910;6.792;2023-03-01T06:41:44;28.88;;;17.95;;
26806;SDS011;14380;49.910;6.792;2023-03-01T06:44:10;30.30;;;17.77;;
26806;SDS011;14380;49.910;6.792;2023-03-01T06:46:38;30.90;;;18.38;;
26806;SDS011;14380;49.910;6.792;2023-03-01T06:49:05;31.15;;;19.48;;
26806;SDS011;14380;49.910;6.792;2023-03-01T06:51:34;31.33;;;18.58;;
26806;SDS011;14380;49.910;6.792;2023-03-01T06:54:02;28.52;;;17.70;;
26806;SDS011;14380;49.910;6.792;2023-03-01T06:56:29;31.50;;;18.85;;
26806;SDS011;14380;49.910;6.792;2023-03-01T06:58:57;29.80;;;19.08;;
26806;SDS011;14380;49.910;6.792;2023-03-01T07:01:24;32.60;;;19.38;;
26806;SDS011;14380;49.910;6.792;2023-03-01T07:03:51;35.33;;;20.65;;
26806;SDS011;14380;49.910;6.792;2023-03-01T07:06:18;33.35;;;19.90;;
26806;SDS011;14380;49.910;6.792;2023-03-01T07:08:44;31.65;;;19.13;;
26806;SDS011;14380;49.910;6.792;2023-03-01T07:11:11;35.25;;;20.65;;
26806;SDS011;14380;49.910;6.792;2023-03-01T07:13:38;35.72;;;19.52;;
26806;SDS011;14380;49.910;6.792;2023-03-01T07:16:07;34.95;;;20.27;;
26806;SDS011;14380;49.910;6.792;2023-03-01T07:18:34;32.15;;;20.40;;
26806;SDS011;14380;49.910;6.792;2023-03-01T07:21:03;36.45;;;21.58;;
26806;SDS011;14380;49.910;6.792;2023-03-01T07:23:31;36.28;;;20.00;;
26806;SDS011;14380;49.910;6.792;2023-03-01T07:25:57;32.92;;;19.52;;
26806;SDS011;14380;49.910;6.792;2023-03-01T07:28:25;34.60;;;21.05;;
26806;SDS011;14380;49.910;6.792;2023-03-01T07:30:52;34.33;;;20.25;;
26806;SDS011;14380;49.910;6.792;2023-03-01T07:33:21;33.13;;;20.10;;
26806;SDS011;14380;49.910;6.792;2023-03-01T07:35:48;32.17;;;19.20;;
26806;SDS011;14380;49.910;6.792;2023-03-01T07:38:15;27.58;;;18.45;;
26806;SDS011;14380;49.910;6.792;2023-03-01T07:40:41;34.53;;;19.95;;
26806;SDS011;14380;49.910;6.792;2023-03-01T07:43:08;30.10;;;18.35;;
26806;SDS011;14380;49.910;6.792;2023-03-01T07:45:35;31.00;;;18.90;;
26806;SDS011;14380;49.910;6.792;2023-03-01T07:48:02;31.23;;;18.85;;
26806;SDS011;14380;49.910;6.792;2023-03-01T07:50:30;33.80;;;19.38;;
26806;SDS011;14380;49.910;6.792;2023-03-01T07:52:57;35.75;;;20.20;;
26806;SDS011;14380;49.910;6.792;2023-03-01T07:55:24;32.42;;;19.33;;
26806;SDS011;14380;49.910;6.792;2023-03-01T07:57:51;31.98;;;18.85;;
26806;SDS011;14380;49.910;6.792;2023-03-01T08:00:18;30.90;;;19.65;;
26806;SDS011;14380;49.910;6.792;2023-03-01T08:02:45;35.42;;;20.17;;
26806;SDS011;14380;49.910;6.792;2023-03-01T08:05:12;29.75;;;18.40;;
26806;SDS011;14380;49.910;6.792;2023-03-01T08:07:40;36.13;;;19.52;;
26806;SDS011;14380;49.910;6.792;2023-03-01T08:10:07;30.05;;;18.73;;
26806;SDS011;14380;49.910;6.792;2023-03-01T08:12:35;28.83;;;18.58;;
26806;SDS011;14380;49.910;6.792;2023-03-01T08:15:02;36.72;;;18.92;;
26806;SDS011;14380;49.910;6.792;2023-03-01T08:17:29;32.40;;;19.77;;
26806;SDS011;14380;49.910;6.792;2023-03-01T08:19:56;34.42;;;20.52;;
26806;SDS011;14380;49.910;6.792;2023-03-01T08:22:22;32.65;;;19.05;;
26806;SDS011;14380;49.910;6.792;2023-03-01T08:24:50;34.72;;;18.05;;
26806;SDS011;14380;49.910;6.792;2023-03-01T08:27:17;30.63;;;18.00;;
26806;SDS011;14380;49.910;6.792;2023-03-01T08:29:44;29.40;;;17.25;;
26806;SDS011;14380;49.910;6.792;2023-03-01T08:32:12;34.22;;;19.08;;
26806;SDS011;14380;49.910;6.792;2023-03-01T08:34:39;31.95;;;19.50;;
26806;SDS011;14380;49.910;6.792;2023-03-01T08:37:06;31.77;;;18.05;;
26806;SDS011;14380;49.910;6.792;2023-03-01T08:39:32;27.75;;;17.63;;
26806;SDS011;14380;49.910;6.792;2023-03-01T08:42:01;33.08;;;19.27;;
26806;SDS011;14380;49.910;6.792;2023-03-01T08:44:27;27.92;;;16.98;;
26806;SDS011;14380;49.910;6.792;2023-03-01T08:46:54;30.65;;;18.80;;
26806;SDS011;14380;49.910;6.792;2023-03-01T08:49:22;33.85;;;19.17;;
26806;SDS011;14380;49.910;6.792;2023-03-01T08:51:49;33.05;;;17.90;;
26806;SDS011;14380;49.910;6.792;2023-03-01T08:54:17;29.52;;;18.63;;
26806;SDS011;14380;49.910;6.792;2023-03-01T08:56:45;32.53;;;19.63;;
26806;SDS011;14380;49.910;6.792;2023-03-01T08:59:14;28.10;;;18.92;;
26806;SDS011;14380;49.910;6.792;2023-03-01T09:01:44;28.90;;;16.90;;
26806;SDS011;14380;49.910;6.792;2023-03-01T09:04:11;35.50;;;19.83;;
26806;SDS011;14380;49.910;6.792;2023-03-01T09:06:38;39.85;;;17.60;;
26806;SDS011;14380;49.910;6.792;2023-03-01T09:09:05;32.42;;;17.70;;
26806;SDS011;14380;49.910;6.792;2023-03-01T09:11:34;28.80;;;18.52;;
26806;SDS011;14380;49.910;6.792;2023-03-01T09:14:04;31.15;;;18.38;;
26806;SDS011;14380;49.910;6.792;2023-03-01T09:16:33;28.45;;;18.23;;
26806;SDS011;14380;49.910;6.792;2023-03-01T09:19:01;32.40;;;18.83;;
26806;SDS011;14380;49.910;6.792;2023-03-01T09:21:28;29.73;;;17.95;;
26806;SDS011;14380;49.910;6.792;2023-03-01T09:23:55;29.05;;;17.23;;
26806;SDS011;14380;49.910;6.792;2023-03-01T09:26:23;27.77;;;16.50;;
26806;SDS011;14380;49.910;6.792;2023-03-01T09:28:51;31.88;;;17.80;;
26806;SDS011;14380;49.910;6.792;2023-03-01T09:31:20;21.60;;;13.63;;
26806;SDS011;14380;49.910;6.792;2023-03-01T09:33:50;28.40;;;17.02;;
26806;SDS011;14380;49.910;6.792;2023-03-01T09:36:19;28.27;;;17.85;;
26806;SDS011;14380;49.910;6.792;2023-03-01T09:38:48;28.63;;;17.35;;
26806;SDS011;14380;49.910;6.792;2023-03-01T09:41:19;28.30;;;17.23;;
26806;SDS011;14380;49.910;6.792;2023-03-01T09:43:57;26.63;;;15.70;;
26806;SDS011;14380;49.910;6.792;2023-03-01T09:46:29;27.23;;;16.73;;
26806;SDS011;14380;49.910;6.792;2023-03-01T09:49:03;28.13;;;16.15;;
26806;SDS011;14380;49.910;6.792;2023-03-01T09:51:36;26.23;;;16.58;;
26806;SDS011;14380;49.910;6.792;2023-03-01T09:54:04;28.48;;;16.67;;
26806;SDS011;14380;49.910;6.792;2023-03-01T09:56:33;25.67;;;16.83;;
26806;SDS011;14380;49.910;6.792;2023-03-01T09:59:06;27.40;;;15.60;;
26806;SDS011;14380;49.910;6.792;2023-03-01T10:01:44;33.25;;;18.38;;
26806;SDS011;14380;49.910;6.792;2023-03-01T10:04:26;28.35;;;17.35;;
26806;SDS011;14380;49.910;6.792;2023-03-01T10:07:03;24.13;;;16.17;;
26806;SDS011;14380;49.910;6.792;2023-03-01T10:09:39;28.10;;;17.48;;
26806;SDS011;14380;49.910;6.792;2023-03-01T10:12:08;27.90;;;15.65;;
26806;SDS011;14380;49.910;6.792;2023-03-01T10:14:39;32.15;;;18.25;;
26806;SDS011;14380;49.910;6.792;2023-03-01T10:17:17;26.20;;;16.92;;
26806;SDS011;14380;49.910;6.792;2023-03-01T10:19:52;29.00;;;17.20;;
26806;SDS011;14380;49.910;6.792;2023-03-01T10:22:21;25.85;;;16.73;;
26806;SDS011;14380;49.910;6.792;2023-03-01T10:24:53;28.15;;;17.52;;
26806;SDS011;14380;49.910;6.792;2023-03-01T10:27:21;25.98;;;16.33;;
26806;SDS011;14380;49.910;6.792;2023-03-01T10:29:50;24.00;;;17.02;;
26806;SDS011;14380;49.910;6.792;2023-03-01T10:32:24;28.33;;;14.70;;
26806;SDS011;14380;49.910;6.792;2023-03-01T10:34:53;28.00;;;17.08;;
26806;SDS011;14380;49.910;6.792;2023-03-01T10:37:22;32.50;;;18.25;;
26806;SDS011;14380;49.910;6.792;2023-03-01T10:39:54;25.48;;;16.13;;
26806;SDS011;14380;49.910;6.792;2023-03-01T10:42:31;28.65;;;17.48;;
26806;SDS011;14380;49.910;6.792;2023-03-01T10:45:14;25.35;;;16.75;;
26806;SDS011;14380;49.910;6.792;2023-03-01T10:47:43;29.52;;;17.83;;
26806;SDS011;14380;49.910;6.792;2023-03-01T10:50:19;30.95;;;19.40;;
26806;SDS011;14380;49.910;6.792;2023-03-01T10:52:55;24.38;;;16.60;;
26806;SDS011;14380;49.910;6.792;2023-03-01T10:55:27;30.08;;;18.13;;
26806;SDS011;14380;49.910;6.792;2023-03-01T10:58:09;32.15;;;18.08;;
26806;SDS011;14380;49.910;6.792;2023-03-01T11:00:47;28.67;;;17.77;;
26806;SDS011;14380;49.910;6.792;2023-03-01T11:03:17;25.38;;;17.25;;
26806;SDS011;14380;49.910;6.792;2023-03-01T11:06:05;28.50;;;16.80;;
26806;SDS011;14380;49.910;6.792;2023-03-01T11:08:46;30.17;;;17.25;;
26806;SDS011;14380;49.910;6.792;2023-03-01T11:11:16;26.05;;;17.13;;
26806;SDS011;14380;49.910;6.792;2023-03-01T11:13:56;30.35;;;18.50;;
26806;SDS011;14380;49.910;6.792;2023-03-01T11:16:26;30.70;;;19.17;;
26806;SDS011;14380;49.910;6.792;2023-03-01T11:18:58;26.63;;;17.08;;
26806;SDS011;14380;49.910;6.792;2023-03-01T11:21:30;28.58;;;18.70;;
26806;SDS011;14380;49.910;6.792;2023-03-01T11:23:59;28.67;;;17.63;;
26806;SDS011;14380;49.910;6.792;2023-03-01T11:26:28;28.73;;;19.45;;
26806;SDS011;14380;49.910;6.792;2023-03-01T11:29:02;31.90;;;19.17;;
26806;SDS011;14380;49.910;6.792;2023-03-01T11:31:32;31.42;;;17.60;;
26806;SDS011;14380;49.910;6.792;2023-03-01T11:34:03;27.92;;;18.00;;
26806;SDS011;14380;49.910;6.792;2023-03-01T11:36:38;29.90;;;18.48;;
26806;SDS011;14380;49.910;6.792;2023-03-01T11:39:13;31.17;;;19.63;;
26806;SDS011;14380;49.910;6.792;2023-03-01T11:41:50;28.42;;;19.13;;
26806;SDS011;14380;49.910;6.792;2023-03-01T11:44:32;27.30;;;18.45;;
26806;SDS011;14380;49.910;6.792;2023-03-01T11:47:21;27.27;;;18.17;;
26806;SDS011;14380;49.910;6.792;2023-03-01T11:50:06;34.03;;;19.30;;
26806;SDS011;14380;49.910;6.792;2023-03-01T11:52:45;29.67;;;18.70;;
26806;SDS011;14380;49.910;6.792;2023-03-01T11:55:26;29.60;;;19.05;;
26806;SDS011;14380;49.910;6.792;2023-03-01T11:58:11;30.35;;;17.90;;
26806;SDS011;14380;49.910;6.792;2023-03-01T12:01:00;28.15;;;19.00;;
26806;SDS011;14380;49.910;6.792;2023-03-01T12:03:42;31.67;;;19.33;;
26806;SDS011;14380;49.910;6.792;2023-03-01T12:06:22;28.05;;;18.85;;
26806;SDS011;14380;49.910;6.792;2023-03-01T12:09:05;29.42;;;19.38;;
26806;SDS011;14380;49.910;6.792;2023-03-01T12:11:47;28.73;;;18.65;;
26806;SDS011;14380;49.910;6.792;2023-03-01T12:14:27;30.00;;;18.63;;
26806;SDS011;14380;49.910;6.792;2023-03-01T12:17:15;35.17;;;19.70;;
26806;SDS011;14380;49.910;6.792;2023-03-01T12:19:56;32.42;;;19.30;;
26806;SDS011;14380;49.910;6.792;2023-03-01T12:22:40;28.00;;;17.27;;
26806;SDS011;14380;49.910;6.792;2023-03-01T12:25:22;30.77;;;18.80;;
26806;SDS011;14380;49.910;6.792;2023-03-01T12:30:51;30.30;;;18.52;;
26806;SDS011;14380;49.910;6.792;2023-03-01T12:33:29;29.83;;;18.90;;
26806;SDS011;14380;49.910;6.792;2023-03-01T12:36:22;26.85;;;17.65;;
26806;SDS011;14380;49.910;6.792;2023-03-01T12:39:18;30.33;;;18.48;;
26806;SDS011;14380;49.910;6.792;2023-03-01T12:42:01;29.60;;;17.63;;
26806;SDS011;14380;49.910;6.792;2023-03-01T12:44:41;26.92;;;17.77;;
26806;SDS011;14380;49.910;6.792;2023-03-01T12:49:59;28.42;;;17.08;;
26806;SDS011;14380;49.910;6.792;2023-03-01T12:52:31;29.17;;;18.52;;
26806;SDS011;14380;49.910;6.792;2023-03-01T12:55:06;28.88;;;17.30;;
26806;SDS011;14380;49.910;6.792;2023-03-01T12:57:46;25.98;;;17.15;;
26806;SDS011;14380;49.910;6.792;2023-03-01T13:00:22;31.33;;;17.63;;
26806;SDS011;14380;49.910;6.792;2023-03-01T13:02:55;26.30;;;17.23;;
26806;SDS011;14380;49.910;6.792;2023-03-01T13:05:29;26.58;;;17.00;;
26806;SDS011;14380;49.910;6.792;2023-03-01T13:08:07;24.85;;;14.93;;
26806;SDS011;14380;49.910;6.792;2023-03-01T13:10:43;26.30;;;16.65;;
26806;SDS011;14380;49.910;6.792;2023-03-01T13:13:20;24.20;;;15.90;;
26806;SDS011;14380;49.910;6.792;2023-03-01T13:15:47;25.95;;;16.98;;
26806;SDS011;14380;49.910;6.792;2023-03-01T13:21:07;29.20;;;16.67;;
26806;SDS011;14380;49.910;6.792;2023-03-01T13:23:35;25.45;;;17.08;;
26806;SDS011;14380;49.910;6.792;2023-03-01T13:26:07;26.13;;;16.58;;
26806;SDS011;14380;49.910;6.792;2023-03-01T13:34:39;26.27;;;16.80;;
26806;SDS011;14380;49.910;6.792;2023-03-01T13:37:17;24.95;;;15.32;;
26806;SDS011;14380;49.910;6.792;2023-03-01T13:39:46;26.77;;;16.30;;
26806;SDS011;14380;49.910;6.792;2023-03-01T13:45:21;22.83;;;15.25;;
26806;SDS011;14380;49.910;6.792;2023-03-01T13:47:53;29.17;;;17.17;;
26806;SDS011;14380;49.910;6.792;2023-03-01T13:50:25;25.08;;;17.20;;
26806;SDS011;14380;49.910;6.792;2023-03-01T13:52:54;21.25;;;15.93;;
26806;SDS011;14380;49.910;6.792;2023-03-01T13:55:26;25.95;;;16.08;;
26806;SDS011;14380;49.910;6.792;2023-03-01T13:57:58;23.05;;;15.90;;
26806;SDS011;14380;49.910;6.792;2023-03-01T14:00:42;20.52;;;14.93;;
26806;SDS011;14380;49.910;6.792;2023-03-01T14:03:10;25.13;;;15.93;;
26806;SDS011;14380;49.910;6.792;2023-03-01T14:05:38;27.63;;;16.48;;
26806;SDS011;14380;49.910;6.792;2023-03-01T14:08:17;21.58;;;15.20;;
26806;SDS011;14380;49.910;6.792;2023-03-01T14:10:49;26.92;;;16.48;;
26806;SDS011;14380;49.910;6.792;2023-03-01T14:13:30;24.50;;;14.93;;
26806;SDS011;14380;49.910;6.792;2023-03-01T14:16:12;23.23;;;15.63;;
26806;SDS011;14380;49.910;6.792;2023-03-01T14:18:47;24.83;;;14.90;;
26806;SDS011;14380;49.910;6.792;2023-03-01T14:21:21;28.70;;;15.88;;
26806;SDS011;14380;49.910;6.792;2023-03-01T14:23:50;23.85;;;16.50;;
26806;SDS011;14380;49.910;6.792;2023-03-01T14:26:19;22.80;;;15.65;;
26806;SDS011;14380;49.910;6.792;2023-03-01T14:28:47;23.13;;;15.57;;
26806;SDS011;14380;49.910;6.792;2023-03-01T14:31:34;28.58;;;17.58;;
26806;SDS011;14380;49.910;6.792;2023-03-01T14:34:03;22.50;;;16.58;;
26806;SDS011;14380;49.910;6.792;2023-03-01T14:36:31;21.95;;;15.07;;
26806;SDS011;14380;49.910;6.792;2023-03-01T14:38:59;24.38;;;16.45;;
26806;SDS011;14380;49.910;6.792;2023-03-01T14:41:30;22.90;;;16.42;;
26806;SDS011;14380;49.910;6.792;2023-03-01T14:44:00;21.02;;;15.52;;
26806;SDS011;14380;49.910;6.792;2023-03-01T14:46:33;22.40;;;14.98;;
26806;SDS011;14380;49.910;6.792;2023-03-01T14:49:04;22.05;;;14.18;;
26806;SDS011;14380;49.910;6.792;2023-03-01T14:51:36;26.35;;;16.00;;
26806;SDS011;14380;49.910;6.792;2023-03-01T14:54:10;26.13;;;14.45;;
26806;SDS011;14380;49.910;6.792;2023-03-01T14:56:46;18.33;;;11.48;;
26806;SDS011;14380;49.910;6.792;2023-03-01T14:59:14;18.83;;;12.77;;